sensor_id;sensor_type;location;lat;lon;timestamp;P1;durP1;ratioP1;P2;durP2;ratioP2
48268;SDS011;34088;52.232;5.196;2023-03-31T00:02:01;23.60;;;4.78;;
48268;SDS011;34088;52.232;5.196;2023-03-31T00:04:31;23.58;;;4.70;;
48268;SDS011;34088;52.232;5.196;2023-03-31T00:06:57;26.38;;;4.57;;
48268;SDS011;34088;52.232;5.196;2023-03-31T00:09:24;22.27;;;4.10;;
48268;SDS011;34088;52.232;5.196;2023-03-31T00:11:50;32.17;;;4.72;;
48268;SDS011;34088;52.232;5.196;2023-03-31T00:14:17;24.00;;;4.55;;
48268;SDS011;34088;52.232;5.196;2023-03-31T00:16:43;27.45;;;4.13;;
48268;SDS011;34088;52.232;5.196;2023-03-31T00:32:57;20.70;;;4.10;;
48268;SDS011;34088;52.232;5.196;2023-03-31T00:35:23;19.73;;;4.22;;
48268;SDS011;34088;52.232;5.196;2023-03-31T00:37:48;19.58;;;4.22;;
48268;SDS011;34088;52.232;5.196;2023-03-31T00:40:14;21.50;;;4.40;;
48268;SDS011;34088;52.232;5.196;2023-03-31T00:42:40;23.42;;;5.28;;
48268;SDS011;34088;52.232;5.196;2023-03-31T00:47:39;18.98;;;4.90;;
48268;SDS011;34088;52.232;5.196;2023-03-31T00:50:14;24.25;;;5.20;;
48268;SDS011;34088;52.232;5.196;2023-03-31T00:52:45;17.15;;;4.57;;
48268;SDS011;34088;52.232;5.196;2023-03-31T00:55:15;18.83;;;4.43;;
48268;SDS011;34088;52.232;5.196;2023-03-31T00:57:44;20.40;;;4.30;;
48268;SDS011;34088;52.232;5.196;2023-03-31T01:00:12;20.08;;;4.15;;
48268;SDS011;34088;52.232;5.196;2023-03-31T01:03:00;15.68;;;4.03;;
48268;SDS011;34088;52.232;5.196;2023-03-31T01:05:35;19.58;;;4.45;;
48268;SDS011;34088;52.232;5.196;2023-03-31T01:08:07;17.15;;;4.22;;
48268;SDS011;34088;52.232;5.196;2023-03-31T01:10:35;15.70;;;4.03;;
48268;SDS011;34088;52.232;5.196;2023-03-31T01:13:06;15.50;;;4.47;;
48268;SDS011;34088;52.232;5.196;2023-03-31T01:15:34;19.33;;;4.38;;
48268;SDS011;34088;52.232;5.196;2023-03-31T01:18:00;17.50;;;3.92;;
48268;SDS011;34088;52.232;5.196;2023-03-31T01:24:22;12.65;;;3.40;;
48268;SDS011;34088;52.232;5.196;2023-03-31T01:38:09;16.02;;;3.63;;
48268;SDS011;34088;52.232;5.196;2023-03-31T01:41:03;12.70;;;3.63;;
48268;SDS011;34088;52.232;5.196;2023-03-31T01:46:09;12.23;;;3.20;;
48268;SDS011;34088;52.232;5.196;2023-03-31T01:51:11;14.20;;;3.50;;
48268;SDS011;34088;52.232;5.196;2023-03-31T01:56:45;13.75;;;4.00;;
48268;SDS011;34088;52.232;5.196;2023-03-31T01:59:26;15.13;;;4.63;;
48268;SDS011;34088;52.232;5.196;2023-03-31T02:02:01;16.52;;;4.70;;
48268;SDS011;34088;52.232;5.196;2023-03-31T02:04:54;14.85;;;4.72;;
48268;SDS011;34088;52.232;5.196;2023-03-31T02:07:23;14.55;;;4.43;;
48268;SDS011;34088;52.232;5.196;2023-03-31T02:09:58;16.10;;;4.70;;
48268;SDS011;34088;52.232;5.196;2023-03-31T02:12:26;17.42;;;4.88;;
48268;SDS011;34088;52.232;5.196;2023-03-31T02:14:53;15.05;;;4.72;;
48268;SDS011;34088;52.232;5.196;2023-03-31T02:17:21;19.70;;;4.93;;
48268;SDS011;34088;52.232;5.196;2023-03-31T02:19:54;14.32;;;4.85;;
48268;SDS011;34088;52.232;5.196;2023-03-31T02:22:23;15.93;;;5.05;;
48268;SDS011;34088;52.232;5.196;2023-03-31T02:24:49;16.40;;;5.32;;
48268;SDS011;34088;52.232;5.196;2023-03-31T02:27:26;13.88;;;5.00;;
48268;SDS011;34088;52.232;5.196;2023-03-31T02:29:57;19.88;;;5.63;;
48268;SDS011;34088;52.232;5.196;2023-03-31T02:32:25;15.02;;;6.18;;
48268;SDS011;34088;52.232;5.196;2023-03-31T02:35:02;19.25;;;6.03;;
48268;SDS011;34088;52.232;5.196;2023-03-31T02:37:28;16.92;;;6.32;;
48268;SDS011;34088;52.232;5.196;2023-03-31T02:39:55;23.17;;;6.13;;
48268;SDS011;34088;52.232;5.196;2023-03-31T02:42:22;17.05;;;6.07;;
48268;SDS011;34088;52.232;5.196;2023-03-31T02:44:47;18.38;;;6.03;;
48268;SDS011;34088;52.232;5.196;2023-03-31T02:47:14;21.48;;;6.07;;
48268;SDS011;34088;52.232;5.196;2023-03-31T02:49:41;17.80;;;5.15;;
48268;SDS011;34088;52.232;5.196;2023-03-31T03:11:03;19.45;;;6.18;;
48268;SDS011;34088;52.232;5.196;2023-03-31T03:13:57;22.33;;;6.80;;
48268;SDS011;34088;52.232;5.196;2023-03-31T03:16:31;18.77;;;6.60;;
48268;SDS011;34088;52.232;5.196;2023-03-31T03:19:00;18.98;;;6.20;;
48268;SDS011;34088;52.232;5.196;2023-03-31T03:21:28;21.00;;;6.35;;
48268;SDS011;34088;52.232;5.196;2023-03-31T03:23:54;20.38;;;6.15;;
48268;SDS011;34088;52.232;5.196;2023-03-31T03:26:20;19.98;;;5.78;;
48268;SDS011;34088;52.232;5.196;2023-03-31T03:28:47;21.02;;;6.20;;
48268;SDS011;34088;52.232;5.196;2023-03-31T03:31:13;17.63;;;5.30;;
48268;SDS011;34088;52.232;5.196;2023-03-31T03:33:39;19.30;;;5.70;;
48268;SDS011;34088;52.232;5.196;2023-03-31T03:36:05;17.23;;;5.78;;
48268;SDS011;34088;52.232;5.196;2023-03-31T03:38:32;15.18;;;5.93;;
48268;SDS011;34088;52.232;5.196;2023-03-31T03:40:57;18.95;;;5.75;;
48268;SDS011;34088;52.232;5.196;2023-03-31T03:43:23;19.08;;;4.75;;
48268;SDS011;34088;52.232;5.196;2023-03-31T03:45:49;19.13;;;5.50;;
48268;SDS011;34088;52.232;5.196;2023-03-31T03:48:15;16.92;;;4.60;;
48268;SDS011;34088;52.232;5.196;2023-03-31T03:50:41;14.75;;;4.53;;
48268;SDS011;34088;52.232;5.196;2023-03-31T03:53:07;14.60;;;4.38;;
48268;SDS011;34088;52.232;5.196;2023-03-31T03:55:32;16.10;;;4.60;;
48268;SDS011;34088;52.232;5.196;2023-03-31T03:57:58;17.55;;;4.57;;
48268;SDS011;34088;52.232;5.196;2023-03-31T04:00:24;16.95;;;5.00;;
48268;SDS011;34088;52.232;5.196;2023-03-31T04:02:50;18.73;;;5.47;;
48268;SDS011;34088;52.232;5.196;2023-03-31T04:05:15;16.13;;;4.72;;
48268;SDS011;34088;52.232;5.196;2023-03-31T04:07:41;23.55;;;5.68;;
48268;SDS011;34088;52.232;5.196;2023-03-31T04:10:07;15.98;;;4.93;;
48268;SDS011;34088;52.232;5.196;2023-03-31T04:12:35;15.00;;;4.57;;
48268;SDS011;34088;52.232;5.196;2023-03-31T04:15:02;17.95;;;5.15;;
48268;SDS011;34088;52.232;5.196;2023-03-31T04:17:28;21.55;;;5.35;;
48268;SDS011;34088;52.232;5.196;2023-03-31T04:20:00;14.35;;;4.47;;
48268;SDS011;34088;52.232;5.196;2023-03-31T04:22:31;12.82;;;4.28;;
48268;SDS011;34088;52.232;5.196;2023-03-31T04:25:04;13.27;;;3.92;;
48268;SDS011;34088;52.232;5.196;2023-03-31T04:27:39;13.75;;;4.20;;
48268;SDS011;34088;52.232;5.196;2023-03-31T04:30:10;11.90;;;3.90;;
48268;SDS011;34088;52.232;5.196;2023-03-31T04:32:37;10.38;;;3.30;;
48268;SDS011;34088;52.232;5.196;2023-03-31T04:35:03;8.95;;;2.90;;
48268;SDS011;34088;52.232;5.196;2023-03-31T04:37:28;10.20;;;3.03;;
48268;SDS011;34088;52.232;5.196;2023-03-31T04:39:58;10.23;;;3.08;;
48268;SDS011;34088;52.232;5.196;2023-03-31T04:42:28;14.15;;;3.00;;
48268;SDS011;34088;52.232;5.196;2023-03-31T04:44:53;10.40;;;2.55;;
48268;SDS011;34088;52.232;5.196;2023-03-31T04:47:19;11.35;;;3.33;;
48268;SDS011;34088;52.232;5.196;2023-03-31T04:49:44;18.83;;;3.58;;
48268;SDS011;34088;52.232;5.196;2023-03-31T04:52:10;13.60;;;3.08;;
48268;SDS011;34088;52.232;5.196;2023-03-31T04:54:35;9.40;;;2.88;;
48268;SDS011;34088;52.232;5.196;2023-03-31T04:57:01;13.55;;;3.10;;
48268;SDS011;34088;52.232;5.196;2023-03-31T04:59:26;8.48;;;2.92;;
48268;SDS011;34088;52.232;5.196;2023-03-31T05:01:52;12.45;;;3.22;;
48268;SDS011;34088;52.232;5.196;2023-03-31T05:04:17;10.02;;;3.13;;
48268;SDS011;34088;52.232;5.196;2023-03-31T05:06:43;10.00;;;3.15;;
48268;SDS011;34088;52.232;5.196;2023-03-31T05:09:09;12.45;;;3.10;;
48268;SDS011;34088;52.232;5.196;2023-03-31T05:11:34;15.38;;;3.65;;
48268;SDS011;34088;52.232;5.196;2023-03-31T05:14:00;11.68;;;3.15;;
48268;SDS011;34088;52.232;5.196;2023-03-31T05:16:26;15.07;;;3.72;;
48268;SDS011;34088;52.232;5.196;2023-03-31T05:18:51;11.85;;;3.85;;
48268;SDS011;34088;52.232;5.196;2023-03-31T05:21:18;14.55;;;3.80;;
48268;SDS011;34088;52.232;5.196;2023-03-31T05:23:45;14.32;;;3.40;;
48268;SDS011;34088;52.232;5.196;2023-03-31T05:26:11;10.82;;;3.08;;
48268;SDS011;34088;52.232;5.196;2023-03-31T05:28:37;13.18;;;2.95;;
48268;SDS011;34088;52.232;5.196;2023-03-31T05:31:03;12.90;;;3.53;;
48268;SDS011;34088;52.232;5.196;2023-03-31T05:33:30;14.00;;;3.40;;
48268;SDS011;34088;52.232;5.196;2023-03-31T05:35:56;15.70;;;3.85;;
48268;SDS011;34088;52.232;5.196;2023-03-31T05:38:24;12.00;;;3.30;;
48268;SDS011;34088;52.232;5.196;2023-03-31T05:40:52;12.18;;;3.55;;
48268;SDS011;34088;52.232;5.196;2023-03-31T05:43:19;13.98;;;3.90;;
48268;SDS011;34088;52.232;5.196;2023-03-31T05:45:44;11.70;;;3.30;;
48268;SDS011;34088;52.232;5.196;2023-03-31T05:48:10;13.85;;;3.60;;
48268;SDS011;34088;52.232;5.196;2023-03-31T05:50:35;9.95;;;3.25;;
48268;SDS011;34088;52.232;5.196;2023-03-31T05:53:01;15.75;;;3.67;;
48268;SDS011;34088;52.232;5.196;2023-03-31T05:55:27;14.60;;;3.38;;
48268;SDS011;34088;52.232;5.196;2023-03-31T05:57:53;14.30;;;3.17;;
48268;SDS011;34088;52.232;5.196;2023-03-31T06:00:18;8.57;;;2.92;;
48268;SDS011;34088;52.232;5.196;2023-03-31T06:02:44;11.05;;;3.10;;
48268;SDS011;34088;52.232;5.196;2023-03-31T06:05:10;10.88;;;3.17;;
48268;SDS011;34088;52.232;5.196;2023-03-31T06:07:36;13.63;;;3.65;;
48268;SDS011;34088;52.232;5.196;2023-03-31T06:10:02;11.27;;;3.00;;
48268;SDS011;34088;52.232;5.196;2023-03-31T06:12:27;11.85;;;3.42;;
48268;SDS011;34088;52.232;5.196;2023-03-31T06:14:53;10.45;;;2.85;;
48268;SDS011;34088;52.232;5.196;2023-03-31T06:17:19;7.57;;;2.30;;
48268;SDS011;34088;52.232;5.196;2023-03-31T06:19:44;11.10;;;2.83;;
48268;SDS011;34088;52.232;5.196;2023-03-31T06:22:10;11.25;;;3.15;;
48268;SDS011;34088;52.232;5.196;2023-03-31T06:24:36;11.00;;;3.00;;
48268;SDS011;34088;52.232;5.196;2023-03-31T06:27:01;11.15;;;3.15;;
48268;SDS011;34088;52.232;5.196;2023-03-31T06:29:27;15.20;;;3.03;;
48268;SDS011;34088;52.232;5.196;2023-03-31T06:31:53;12.05;;;2.70;;
48268;SDS011;34088;52.232;5.196;2023-03-31T06:34:19;11.23;;;2.85;;
48268;SDS011;34088;52.232;5.196;2023-03-31T06:36:45;10.30;;;3.00;;
48268;SDS011;34088;52.232;5.196;2023-03-31T06:39:10;9.55;;;3.03;;
48268;SDS011;34088;52.232;5.196;2023-03-31T06:41:36;11.15;;;2.97;;
48268;SDS011;34088;52.232;5.196;2023-03-31T06:44:02;8.05;;;2.63;;
48268;SDS011;34088;52.232;5.196;2023-03-31T06:46:28;11.00;;;3.00;;
48268;SDS011;34088;52.232;5.196;2023-03-31T06:48:54;8.95;;;2.80;;
48268;SDS011;34088;52.232;5.196;2023-03-31T06:51:20;8.63;;;2.67;;
48268;SDS011;34088;52.232;5.196;2023-03-31T06:53:45;10.35;;;2.58;;
48268;SDS011;34088;52.232;5.196;2023-03-31T06:56:11;7.93;;;2.10;;
48268;SDS011;34088;52.232;5.196;2023-03-31T06:58:36;10.23;;;2.40;;
48268;SDS011;34088;52.232;5.196;2023-03-31T07:01:03;7.90;;;2.58;;
48268;SDS011;34088;52.232;5.196;2023-03-31T07:03:29;8.23;;;2.35;;
48268;SDS011;34088;52.232;5.196;2023-03-31T07:05:55;8.88;;;2.80;;
48268;SDS011;34088;52.232;5.196;2023-03-31T07:08:21;8.50;;;2.47;;
48268;SDS011;34088;52.232;5.196;2023-03-31T07:10:48;11.73;;;2.25;;
48268;SDS011;34088;52.232;5.196;2023-03-31T07:13:14;9.60;;;2.10;;
48268;SDS011;34088;52.232;5.196;2023-03-31T07:15:41;6.63;;;2.13;;
48268;SDS011;34088;52.232;5.196;2023-03-31T07:18:07;8.10;;;2.40;;
48268;SDS011;34088;52.232;5.196;2023-03-31T07:20:33;7.68;;;1.83;;
48268;SDS011;34088;52.232;5.196;2023-03-31T07:22:58;7.05;;;1.92;;
48268;SDS011;34088;52.232;5.196;2023-03-31T07:25:24;8.23;;;2.45;;
48268;SDS011;34088;52.232;5.196;2023-03-31T07:27:49;7.70;;;1.90;;
48268;SDS011;34088;52.232;5.196;2023-03-31T07:30:16;8.35;;;2.10;;
48268;SDS011;34088;52.232;5.196;2023-03-31T07:32:45;7.63;;;1.92;;
48268;SDS011;34088;52.232;5.196;2023-03-31T07:35:12;5.07;;;1.88;;
48268;SDS011;34088;52.232;5.196;2023-03-31T07:37:39;5.90;;;2.20;;
48268;SDS011;34088;52.232;5.196;2023-03-31T07:40:08;7.63;;;2.38;;
48268;SDS011;34088;52.232;5.196;2023-03-31T07:42:34;5.88;;;1.92;;
48268;SDS011;34088;52.232;5.196;2023-03-31T07:45:00;6.60;;;2.17;;
48268;SDS011;34088;52.232;5.196;2023-03-31T07:47:27;9.98;;;1.90;;
48268;SDS011;34088;52.232;5.196;2023-03-31T07:49:52;5.30;;;1.60;;
48268;SDS011;34088;52.232;5.196;2023-03-31T07:52:18;8.00;;;2.17;;
48268;SDS011;34088;52.232;5.196;2023-03-31T07:54:44;8.43;;;2.00;;
48268;SDS011;34088;52.232;5.196;2023-03-31T07:57:10;7.05;;;2.10;;
48268;SDS011;34088;52.232;5.196;2023-03-31T07:59:36;7.60;;;2.30;;
48268;SDS011;34088;52.232;5.196;2023-03-31T08:02:02;6.18;;;2.28;;
48268;SDS011;34088;52.232;5.196;2023-03-31T08:04:27;9.18;;;2.60;;
48268;SDS011;34088;52.232;5.196;2023-03-31T08:06:53;10.93;;;3.13;;
48268;SDS011;34088;52.232;5.196;2023-03-31T08:09:18;8.55;;;2.70;;
48268;SDS011;34088;52.232;5.196;2023-03-31T08:11:46;7.97;;;2.63;;
48268;SDS011;34088;52.232;5.196;2023-03-31T08:14:12;7.80;;;2.50;;
48268;SDS011;34088;52.232;5.196;2023-03-31T08:16:37;8.70;;;2.55;;
48268;SDS011;34088;52.232;5.196;2023-03-31T08:19:03;10.48;;;3.28;;
48268;SDS011;34088;52.232;5.196;2023-03-31T08:21:28;8.32;;;2.92;;
48268;SDS011;34088;52.232;5.196;2023-03-31T08:23:54;11.05;;;3.17;;
48268;SDS011;34088;52.232;5.196;2023-03-31T08:26:20;11.32;;;3.25;;
48268;SDS011;34088;52.232;5.196;2023-03-31T08:28:48;10.80;;;3.30;;
48268;SDS011;34088;52.232;5.196;2023-03-31T08:31:14;9.95;;;3.20;;
48268;SDS011;34088;52.232;5.196;2023-03-31T08:33:40;9.88;;;3.13;;
48268;SDS011;34088;52.232;5.196;2023-03-31T08:36:06;10.10;;;3.50;;
48268;SDS011;34088;52.232;5.196;2023-03-31T08:38:34;13.07;;;3.65;;
48268;SDS011;34088;52.232;5.196;2023-03-31T08:41:06;10.30;;;3.88;;
48268;SDS011;34088;52.232;5.196;2023-03-31T08:43:39;16.45;;;4.28;;
48268;SDS011;34088;52.232;5.196;2023-03-31T08:46:09;14.57;;;4.40;;
48268;SDS011;34088;52.232;5.196;2023-03-31T08:48:36;14.70;;;4.72;;
48268;SDS011;34088;52.232;5.196;2023-03-31T08:51:13;13.25;;;4.60;;
48268;SDS011;34088;52.232;5.196;2023-03-31T08:54:06;11.93;;;4.43;;
48268;SDS011;34088;52.232;5.196;2023-03-31T08:56:36;15.32;;;5.53;;
48268;SDS011;34088;52.232;5.196;2023-03-31T08:59:04;13.52;;;4.65;;
48268;SDS011;34088;52.232;5.196;2023-03-31T09:01:46;15.60;;;4.88;;
48268;SDS011;34088;52.232;5.196;2023-03-31T09:09:19;16.13;;;5.28;;
48268;SDS011;34088;52.232;5.196;2023-03-31T09:12:00;15.63;;;5.18;;
48268;SDS011;34088;52.232;5.196;2023-03-31T09:19:59;15.38;;;6.03;;
48268;SDS011;34088;52.232;5.196;2023-03-31T09:22:33;15.30;;;4.55;;
48268;SDS011;34088;52.232;5.196;2023-03-31T09:25:04;18.40;;;5.00;;
48268;SDS011;34088;52.232;5.196;2023-03-31T09:27:36;11.80;;;4.15;;
48268;SDS011;34088;52.232;5.196;2023-03-31T09:32:42;17.75;;;4.88;;
48268;SDS011;34088;52.232;5.196;2023-03-31T09:35:13;16.80;;;4.22;;
48268;SDS011;34088;52.232;5.196;2023-03-31T09:37:45;21.67;;;4.68;;
48268;SDS011;34088;52.232;5.196;2023-03-31T09:40:15;15.60;;;4.20;;
48268;SDS011;34088;52.232;5.196;2023-03-31T09:42:43;18.30;;;4.03;;
48268;SDS011;34088;52.232;5.196;2023-03-31T09:45:13;17.75;;;4.68;;
48268;SDS011;34088;52.232;5.196;2023-03-31T09:47:43;21.77;;;4.68;;
48268;SDS011;34088;52.232;5.196;2023-03-31T09:50:11;21.83;;;4.93;;
48268;SDS011;34088;52.232;5.196;2023-03-31T09:55:39;24.77;;;4.18;;
48268;SDS011;34088;52.232;5.196;2023-03-31T09:58:13;20.30;;;4.40;;
48268;SDS011;34088;52.232;5.196;2023-03-31T10:00:40;18.67;;;4.63;;
48268;SDS011;34088;52.232;5.196;2023-03-31T10:03:09;20.58;;;4.85;;
48268;SDS011;34088;52.232;5.196;2023-03-31T10:05:37;20.90;;;5.88;;
48268;SDS011;34088;52.232;5.196;2023-03-31T10:11:23;21.92;;;5.20;;
48268;SDS011;34088;52.232;5.196;2023-03-31T10:13:44;16.17;;;4.32;;
48268;SDS011;34088;52.232;5.196;2023-03-31T10:16:31;15.68;;;3.90;;
48268;SDS011;34088;52.232;5.196;2023-03-31T10:24:25;17.52;;;4.28;;
48268;SDS011;34088;52.232;5.196;2023-03-31T10:26:52;17.17;;;4.40;;
48268;SDS011;34088;52.232;5.196;2023-03-31T10:29:28;18.23;;;4.13;;
48268;SDS011;34088;52.232;5.196;2023-03-31T10:32:00;16.52;;;3.67;;
48268;SDS011;34088;52.232;5.196;2023-03-31T10:34:27;16.00;;;3.88;;
48268;SDS011;34088;52.232;5.196;2023-03-31T10:36:54;15.25;;;3.78;;
48268;SDS011;34088;52.232;5.196;2023-03-31T10:39:20;14.45;;;4.07;;
48268;SDS011;34088;52.232;5.196;2023-03-31T10:41:53;16.83;;;4.55;;
48268;SDS011;34088;52.232;5.196;2023-03-31T10:44:29;18.25;;;4.50;;
48268;SDS011;34088;52.232;5.196;2023-03-31T10:47:02;15.40;;;3.88;;
48268;SDS011;34088;52.232;5.196;2023-03-31T10:49:38;14.25;;;3.45;;
48268;SDS011;34088;52.232;5.196;2023-03-31T10:52:08;15.52;;;3.88;;
48268;SDS011;34088;52.232;5.196;2023-03-31T10:54:57;12.73;;;3.05;;
48268;SDS011;34088;52.232;5.196;2023-03-31T10:57:28;15.55;;;3.38;;
48268;SDS011;34088;52.232;5.196;2023-03-31T11:00:49;14.20;;;3.25;;
48268;SDS011;34088;52.232;5.196;2023-03-31T11:06:45;14.25;;;3.33;;
48268;SDS011;34088;52.232;5.196;2023-03-31T11:09:12;11.02;;;3.10;;
48268;SDS011;34088;52.232;5.196;2023-03-31T11:11:47;12.93;;;3.30;;
48268;SDS011;34088;52.232;5.196;2023-03-31T11:14:48;10.70;;;3.03;;
48268;SDS011;34088;52.232;5.196;2023-03-31T11:22:54;13.20;;;3.25;;
48268;SDS011;34088;52.232;5.196;2023-03-31T11:37:53;13.73;;;3.88;;
48268;SDS011;34088;52.232;5.196;2023-03-31T11:45:40;13.55;;;3.50;;
48268;SDS011;34088;52.232;5.196;2023-03-31T11:48:30;15.07;;;4.07;;
48268;SDS011;34088;52.232;5.196;2023-03-31T11:51:01;14.32;;;3.70;;
48268;SDS011;34088;52.232;5.196;2023-03-31T11:53:29;16.05;;;4.03;;
48268;SDS011;34088;52.232;5.196;2023-03-31T11:55:56;13.32;;;3.80;;
48268;SDS011;34088;52.232;5.196;2023-03-31T11:58:31;11.35;;;2.83;;
48268;SDS011;34088;52.232;5.196;2023-03-31T12:01:13;11.95;;;3.03;;
48268;SDS011;34088;52.232;5.196;2023-03-31T12:03:41;15.57;;;3.85;;
48268;SDS011;34088;52.232;5.196;2023-03-31T12:06:32;15.63;;;3.80;;
48268;SDS011;34088;52.232;5.196;2023-03-31T12:12:28;16.13;;;3.72;;
48268;SDS011;34088;52.232;5.196;2023-03-31T12:17:16;11.13;;;2.65;;
48268;SDS011;34088;52.232;5.196;2023-03-31T12:19:45;9.60;;;2.47;;
48268;SDS011;34088;52.232;5.196;2023-03-31T12:22:35;8.90;;;2.25;;
48268;SDS011;34088;52.232;5.196;2023-03-31T12:25:03;9.18;;;2.08;;
48268;SDS011;34088;52.232;5.196;2023-03-31T12:27:37;11.20;;;2.15;;
48268;SDS011;34088;52.232;5.196;2023-03-31T12:32:40;10.48;;;2.17;;
48268;SDS011;34088;52.232;5.196;2023-03-31T12:35:15;8.65;;;1.73;;
48268;SDS011;34088;52.232;5.196;2023-03-31T12:40:22;6.55;;;2.05;;
48268;SDS011;34088;52.232;5.196;2023-03-31T12:49:09;9.73;;;2.17;;
48268;SDS011;34088;52.232;5.196;2023-03-31T12:52:03;13.02;;;2.20;;
48268;SDS011;34088;52.232;5.196;2023-03-31T12:57:22;6.75;;;2.20;;
48268;SDS011;34088;52.232;5.196;2023-03-31T13:02:36;8.55;;;2.28;;
48268;SDS011;34088;52.232;5.196;2023-03-31T13:08:11;13.73;;;2.53;;
48268;SDS011;34088;52.232;5.196;2023-03-31T13:11:06;11.45;;;2.42;;
48268;SDS011;34088;52.232;5.196;2023-03-31T13:13:32;10.90;;;3.40;;
48268;SDS011;34088;52.232;5.196;2023-03-31T13:15:57;12.55;;;3.15;;
48268;SDS011;34088;52.232;5.196;2023-03-31T13:18:25;12.27;;;2.70;;
48268;SDS011;34088;52.232;5.196;2023-03-31T13:20:58;8.75;;;2.08;;
48268;SDS011;34088;52.232;5.196;2023-03-31T13:23:24;10.07;;;2.47;;
48268;SDS011;34088;52.232;5.196;2023-03-31T13:25:51;13.05;;;3.30;;
48268;SDS011;34088;52.232;5.196;2023-03-31T13:30:48;15.68;;;2.65;;
48268;SDS011;34088;52.232;5.196;2023-03-31T13:35:53;14.88;;;3.13;;
48268;SDS011;34088;52.232;5.196;2023-03-31T13:43:54;11.27;;;2.78;;
48268;SDS011;34088;52.232;5.196;2023-03-31T13:47:23;12.75;;;4.13;;
48268;SDS011;34088;52.232;5.196;2023-03-31T13:52:11;9.13;;;2.15;;
48268;SDS011;34088;52.232;5.196;2023-03-31T14:00:24;8.77;;;2.40;;
48268;SDS011;34088;52.232;5.196;2023-03-31T14:08:59;7.95;;;2.53;;
48268;SDS011;34088;52.232;5.196;2023-03-31T14:11:33;10.20;;;2.78;;
48268;SDS011;34088;52.232;5.196;2023-03-31T14:14:00;8.15;;;2.33;;
48268;SDS011;34088;52.232;5.196;2023-03-31T14:16:27;11.38;;;2.47;;
48268;SDS011;34088;52.232;5.196;2023-03-31T14:18:59;10.05;;;2.58;;
48268;SDS011;34088;52.232;5.196;2023-03-31T14:22:09;12.57;;;2.78;;
48268;SDS011;34088;52.232;5.196;2023-03-31T14:27:46;9.57;;;2.50;;
48268;SDS011;34088;52.232;5.196;2023-03-31T14:35:36;6.78;;;2.33;;
48268;SDS011;34088;52.232;5.196;2023-03-31T14:38:12;7.38;;;2.00;;
48268;SDS011;34088;52.232;5.196;2023-03-31T14:40:46;8.18;;;2.22;;
48268;SDS011;34088;52.232;5.196;2023-03-31T14:43:17;8.77;;;2.50;;
48268;SDS011;34088;52.232;5.196;2023-03-31T14:48:44;10.25;;;2.35;;
48268;SDS011;34088;52.232;5.196;2023-03-31T14:51:12;5.82;;;1.70;;
48268;SDS011;34088;52.232;5.196;2023-03-31T14:53:40;6.57;;;1.98;;
48268;SDS011;34088;52.232;5.196;2023-03-31T14:56:14;5.78;;;1.80;;
48268;SDS011;34088;52.232;5.196;2023-03-31T14:58:46;8.15;;;2.10;;
48268;SDS011;34088;52.232;5.196;2023-03-31T15:01:16;5.50;;;1.92;;
48268;SDS011;34088;52.232;5.196;2023-03-31T15:03:44;6.88;;;1.90;;
48268;SDS011;34088;52.232;5.196;2023-03-31T15:06:10;9.63;;;2.55;;
48268;SDS011;34088;52.232;5.196;2023-03-31T15:08:36;6.35;;;2.08;;
48268;SDS011;34088;52.232;5.196;2023-03-31T15:11:07;8.60;;;2.00;;
48268;SDS011;34088;52.232;5.196;2023-03-31T15:13:35;7.35;;;2.05;;
48268;SDS011;34088;52.232;5.196;2023-03-31T15:18:45;8.63;;;2.72;;
48268;SDS011;34088;52.232;5.196;2023-03-31T15:21:19;6.15;;;2.47;;
48268;SDS011;34088;52.232;5.196;2023-03-31T15:23:51;8.48;;;2.42;;
48268;SDS011;34088;52.232;5.196;2023-03-31T15:26:25;8.18;;;2.95;;
48268;SDS011;34088;52.232;5.196;2023-03-31T15:28:56;8.00;;;2.80;;
48268;SDS011;34088;52.232;5.196;2023-03-31T15:31:27;8.10;;;2.90;;
48268;SDS011;34088;52.232;5.196;2023-03-31T15:33:54;6.38;;;2.50;;
48268;SDS011;34088;52.232;5.196;2023-03-31T15:36:20;6.40;;;2.38;;
48268;SDS011;34088;52.232;5.196;2023-03-31T15:38:46;6.80;;;2.53;;
48268;SDS011;34088;52.232;5.196;2023-03-31T15:41:22;7.88;;;2.22;;
48268;SDS011;34088;52.232;5.196;2023-03-31T15:43:48;8.18;;;2.28;;
48268;SDS011;34088;52.232;5.196;2023-03-31T15:49:02;4.93;;;2.08;;
48268;SDS011;34088;52.232;5.196;2023-03-31T15:51:29;4.13;;;2.13;;
48268;SDS011;34088;52.232;5.196;2023-03-31T15:54:00;6.68;;;2.63;;
48268;SDS011;34088;52.232;5.196;2023-03-31T15:56:37;6.90;;;2.95;;
48268;SDS011;34088;52.232;5.196;2023-03-31T15:59:22;6.20;;;2.55;;
48268;SDS011;34088;52.232;5.196;2023-03-31T16:01:48;8.30;;;2.60;;
48268;SDS011;34088;52.232;5.196;2023-03-31T16:04:15;6.57;;;2.50;;
48268;SDS011;34088;52.232;5.196;2023-03-31T16:06:46;10.98;;;4.00;;
48268;SDS011;34088;52.232;5.196;2023-03-31T16:11:51;4.38;;;2.25;;
48268;SDS011;34088;52.232;5.196;2023-03-31T16:14:25;5.95;;;2.60;;
48268;SDS011;34088;52.232;5.196;2023-03-31T16:17:00;5.63;;;2.60;;
48268;SDS011;34088;52.232;5.196;2023-03-31T16:19:30;5.43;;;2.53;;
48268;SDS011;34088;52.232;5.196;2023-03-31T16:22:03;6.57;;;2.88;;
48268;SDS011;34088;52.232;5.196;2023-03-31T16:24:32;6.10;;;3.20;;
48268;SDS011;34088;52.232;5.196;2023-03-31T16:26:59;8.43;;;3.78;;
48268;SDS011;34088;52.232;5.196;2023-03-31T16:29:31;8.13;;;3.85;;
48268;SDS011;34088;52.232;5.196;2023-03-31T16:32:08;10.75;;;4.05;;
48268;SDS011;34088;52.232;5.196;2023-03-31T16:34:57;6.32;;;3.13;;
48268;SDS011;34088;52.232;5.196;2023-03-31T16:37:28;4.80;;;2.72;;
48268;SDS011;34088;52.232;5.196;2023-03-31T16:39:53;5.15;;;2.60;;
48268;SDS011;34088;52.232;5.196;2023-03-31T16:42:19;6.50;;;2.97;;
48268;SDS011;34088;52.232;5.196;2023-03-31T16:44:45;6.22;;;3.15;;
48268;SDS011;34088;52.232;5.196;2023-03-31T16:47:11;5.65;;;3.30;;
48268;SDS011;34088;52.232;5.196;2023-03-31T16:49:37;5.75;;;3.20;;
48268;SDS011;34088;52.232;5.196;2023-03-31T16:52:03;8.02;;;3.80;;
48268;SDS011;34088;52.232;5.196;2023-03-31T16:54:29;6.25;;;3.38;;
48268;SDS011;34088;52.232;5.196;2023-03-31T16:56:55;6.97;;;3.55;;
48268;SDS011;34088;52.232;5.196;2023-03-31T16:59:21;6.13;;;4.13;;
48268;SDS011;34088;52.232;5.196;2023-03-31T17:01:47;4.80;;;3.55;;
48268;SDS011;34088;52.232;5.196;2023-03-31T17:04:13;4.53;;;3.58;;
48268;SDS011;34088;52.232;5.196;2023-03-31T17:06:38;4.95;;;3.60;;
48268;SDS011;34088;52.232;5.196;2023-03-31T17:09:04;6.85;;;3.40;;
48268;SDS011;34088;52.232;5.196;2023-03-31T17:11:29;3.83;;;3.30;;
48268;SDS011;34088;52.232;5.196;2023-03-31T17:13:55;7.28;;;4.13;;
48268;SDS011;34088;52.232;5.196;2023-03-31T17:16:21;4.68;;;3.78;;
48268;SDS011;34088;52.232;5.196;2023-03-31T17:18:46;6.00;;;3.40;;
48268;SDS011;34088;52.232;5.196;2023-03-31T17:21:13;6.50;;;3.53;;
48268;SDS011;34088;52.232;5.196;2023-03-31T17:23:39;6.13;;;3.90;;
48268;SDS011;34088;52.232;5.196;2023-03-31T17:26:05;3.88;;;3.47;;
48268;SDS011;34088;52.232;5.196;2023-03-31T17:28:34;5.25;;;3.70;;
48268;SDS011;34088;52.232;5.196;2023-03-31T17:31:00;5.07;;;3.97;;
48268;SDS011;34088;52.232;5.196;2023-03-31T17:33:26;5.63;;;3.67;;
48268;SDS011;34088;52.232;5.196;2023-03-31T17:35:58;4.93;;;3.80;;
48268;SDS011;34088;52.232;5.196;2023-03-31T17:38:24;5.95;;;4.45;;
48268;SDS011;34088;52.232;5.196;2023-03-31T17:40:50;5.95;;;4.20;;
48268;SDS011;34088;52.232;5.196;2023-03-31T17:43:15;5.72;;;4.25;;
48268;SDS011;34088;52.232;5.196;2023-03-31T17:45:41;7.30;;;4.72;;
48268;SDS011;34088;52.232;5.196;2023-03-31T17:48:07;5.82;;;4.30;;
48268;SDS011;34088;52.232;5.196;2023-03-31T17:50:33;5.15;;;3.85;;
48268;SDS011;34088;52.232;5.196;2023-03-31T17:53:00;6.72;;;4.05;;